sensor_id;sensor_type;location;lat;lon;timestamp;P1;P2;P0
47741;PMS5003;33504;52.066;6.096;2023-07-28T00:01:55;9;9;
47741;PMS5003;33504;52.066;6.096;2023-07-28T00:04:22;9;9;
47741;PMS5003;33504;52.066;6.096;2023-07-28T00:06:48;12;12;
47741;PMS5003;33504;52.066;6.096;2023-07-28T00:09:15;13;12;
47741;PMS5003;33504;52.066;6.096;2023-07-28T00:11:42;8;8;
47741;PMS5003;33504;52.066;6.096;2023-07-28T00:14:10;11;10;
47741;PMS5003;33504;52.066;6.096;2023-07-28T00:16:36;12;12;
47741;PMS5003;33504;52.066;6.096;2023-07-28T00:19:03;9;9;
47741;PMS5003;33504;52.066;6.096;2023-07-28T00:21:31;13;13;
47741;PMS5003;33504;52.066;6.096;2023-07-28T00:23:58;12;11;
47741;PMS5003;33504;52.066;6.096;2023-07-28T00:26:25;11;11;
47741;PMS5003;33504;52.066;6.096;2023-07-28T00:28:53;9;8;
47741;PMS5003;33504;52.066;6.096;2023-07-28T00:31:19;10;10;
47741;PMS5003;33504;52.066;6.096;2023-07-28T00:33:46;10;10;
47741;PMS5003;33504;52.066;6.096;2023-07-28T00:36:12;10;10;
47741;PMS5003;33504;52.066;6.096;2023-07-28T00:38:39;11;10;
47741;PMS5003;33504;52.066;6.096;2023-07-28T00:41:06;13;13;
47741;PMS5003;33504;52.066;6.096;2023-07-28T00:43:33;10;10;
47741;PMS5003;33504;52.066;6.096;2023-07-28T00:46:00;9;9;
47741;PMS5003;33504;52.066;6.096;2023-07-28T00:48:27;12;11;
47741;PMS5003;33504;52.066;6.096;2023-07-28T00:50:54;9;9;
47741;PMS5003;33504;52.066;6.096;2023-07-28T00:53:21;14;13;
47741;PMS5003;33504;52.066;6.096;2023-07-28T00:55:50;9;9;
47741;PMS5003;33504;52.066;6.096;2023-07-28T00:58:18;12;11;
47741;PMS5003;33504;52.066;6.096;2023-07-28T01:00:45;11;10;
47741;PMS5003;33504;52.066;6.096;2023-07-28T01:03:12;11;10;
47741;PMS5003;33504;52.066;6.096;2023-07-28T01:05:44;10;10;
47741;PMS5003;33504;52.066;6.096;2023-07-28T01:08:22;11;11;
47741;PMS5003;33504;52.066;6.096;2023-07-28T01:10:54;13;13;
47741;PMS5003;33504;52.066;6.096;2023-07-28T01:13:21;11;11;
47741;PMS5003;33504;52.066;6.096;2023-07-28T01:15:48;10;9;
47741;PMS5003;33504;52.066;6.096;2023-07-28T01:18:15;12;12;
47741;PMS5003;33504;52.066;6.096;2023-07-28T01:20:43;9;9;
47741;PMS5003;33504;52.066;6.096;2023-07-28T01:23:14;10;9;
47741;PMS5003;33504;52.066;6.096;2023-07-28T01:25:48;14;11;
47741;PMS5003;33504;52.066;6.096;2023-07-28T01:28:22;10;10;
47741;PMS5003;33504;52.066;6.096;2023-07-28T01:30:49;10;10;
47741;PMS5003;33504;52.066;6.096;2023-07-28T01:33:16;16;16;
47741;PMS5003;33504;52.066;6.096;2023-07-28T01:35:43;10;10;
47741;PMS5003;33504;52.066;6.096;2023-07-28T01:38:10;9;9;
47741;PMS5003;33504;52.066;6.096;2023-07-28T01:40:37;11;11;
47741;PMS5003;33504;52.066;6.096;2023-07-28T01:43:04;10;10;
47741;PMS5003;33504;52.066;6.096;2023-07-28T01:45:32;13;13;
47741;PMS5003;33504;52.066;6.096;2023-07-28T01:47:59;14;14;
47741;PMS5003;33504;52.066;6.096;2023-07-28T01:50:26;16;14;
47741;PMS5003;33504;52.066;6.096;2023-07-28T01:52:53;12;12;
47741;PMS5003;33504;52.066;6.096;2023-07-28T01:55:21;9;9;
47741;PMS5003;33504;52.066;6.096;2023-07-28T01:57:54;12;11;
47741;PMS5003;33504;52.066;6.096;2023-07-28T02:00:22;9;9;
47741;PMS5003;33504;52.066;6.096;2023-07-28T02:02:49;16;15;
47741;PMS5003;33504;52.066;6.096;2023-07-28T02:05:16;14;13;
47741;PMS5003;33504;52.066;6.096;2023-07-28T02:07:45;14;13;
47741;PMS5003;33504;52.066;6.096;2023-07-28T02:10:12;14;12;
47741;PMS5003;33504;52.066;6.096;2023-07-28T02:12:39;13;12;
47741;PMS5003;33504;52.066;6.096;2023-07-28T02:15:07;16;16;
47741;PMS5003;33504;52.066;6.096;2023-07-28T02:17:34;14;13;
47741;PMS5003;33504;52.066;6.096;2023-07-28T02:20:01;13;12;
47741;PMS5003;33504;52.066;6.096;2023-07-28T02:22:28;16;14;
47741;PMS5003;33504;52.066;6.096;2023-07-28T02:24:55;11;11;
47741;PMS5003;33504;52.066;6.096;2023-07-28T02:27:22;10;9;
47741;PMS5003;33504;52.066;6.096;2023-07-28T02:29:49;11;11;
47741;PMS5003;33504;52.066;6.096;2023-07-28T02:32:15;12;11;
47741;PMS5003;33504;52.066;6.096;2023-07-28T02:34:42;15;13;
47741;PMS5003;33504;52.066;6.096;2023-07-28T02:37:09;16;15;
47741;PMS5003;33504;52.066;6.096;2023-07-28T02:39:36;16;14;
47741;PMS5003;33504;52.066;6.096;2023-07-28T02:42:03;19;18;
47741;PMS5003;33504;52.066;6.096;2023-07-28T02:44:30;15;15;
47741;PMS5003;33504;52.066;6.096;2023-07-28T02:46:57;14;14;
47741;PMS5003;33504;52.066;6.096;2023-07-28T02:49:24;14;14;
47741;PMS5003;33504;52.066;6.096;2023-07-28T02:51:51;15;14;
47741;PMS5003;33504;52.066;6.096;2023-07-28T02:54:19;16;15;
47741;PMS5003;33504;52.066;6.096;2023-07-28T02:56:46;15;14;
47741;PMS5003;33504;52.066;6.096;2023-07-28T02:59:13;15;15;
47741;PMS5003;33504;52.066;6.096;2023-07-28T03:01:40;15;15;
47741;PMS5003;33504;52.066;6.096;2023-07-28T03:04:08;16;15;
47741;PMS5003;33504;52.066;6.096;2023-07-28T03:06:35;15;14;
47741;PMS5003;33504;52.066;6.096;2023-07-28T03:09:01;21;19;
47741;PMS5003;33504;52.066;6.096;2023-07-28T03:11:28;18;16;
47741;PMS5003;33504;52.066;6.096;2023-07-28T03:13:56;15;14;
47741;PMS5003;33504;52.066;6.096;2023-07-28T03:16:23;15;14;
47741;PMS5003;33504;52.066;6.096;2023-07-28T03:18:50;19;15;
47741;PMS5003;33504;52.066;6.096;2023-07-28T03:21:17;19;17;
47741;PMS5003;33504;52.066;6.096;2023-07-28T03:23:44;18;17;
47741;PMS5003;33504;52.066;6.096;2023-07-28T03:26:11;20;18;
47741;PMS5003;33504;52.066;6.096;2023-07-28T03:28:38;18;18;
47741;PMS5003;33504;52.066;6.096;2023-07-28T03:31:05;18;18;
47741;PMS5003;33504;52.066;6.096;2023-07-28T03:33:32;18;16;
47741;PMS5003;33504;52.066;6.096;2023-07-28T03:35:59;22;20;
47741;PMS5003;33504;52.066;6.096;2023-07-28T03:38:26;20;19;
47741;PMS5003;33504;52.066;6.096;2023-07-28T03:40:53;22;20;
47741;PMS5003;33504;52.066;6.096;2023-07-28T03:43:21;22;20;
47741;PMS5003;33504;52.066;6.096;2023-07-28T03:45:48;21;19;
47741;PMS5003;33504;52.066;6.096;2023-07-28T03:48:16;23;21;
47741;PMS5003;33504;52.066;6.096;2023-07-28T03:50:43;17;17;
47741;PMS5003;33504;52.066;6.096;2023-07-28T03:53:10;27;24;
47741;PMS5003;33504;52.066;6.096;2023-07-28T03:55:36;25;25;
47741;PMS5003;33504;52.066;6.096;2023-07-28T03:58:03;23;21;
47741;PMS5003;33504;52.066;6.096;2023-07-28T04:00:30;20;20;
47741;PMS5003;33504;52.066;6.096;2023-07-28T04:02:57;24;23;
47741;PMS5003;33504;52.066;6.096;2023-07-28T04:05:24;23;22;
47741;PMS5003;33504;52.066;6.096;2023-07-28T04:07:51;26;24;
47741;PMS5003;33504;52.066;6.096;2023-07-28T04:10:18;25;23;
47741;PMS5003;33504;52.066;6.096;2023-07-28T04:12:45;24;21;
47741;PMS5003;33504;52.066;6.096;2023-07-28T04:15:12;28;25;
47741;PMS5003;33504;52.066;6.096;2023-07-28T04:17:38;23;19;
47741;PMS5003;33504;52.066;6.096;2023-07-28T04:20:06;23;21;
47741;PMS5003;33504;52.066;6.096;2023-07-28T04:22:34;31;29;
47741;PMS5003;33504;52.066;6.096;2023-07-28T04:25:00;22;20;
47741;PMS5003;33504;52.066;6.096;2023-07-28T04:27:27;23;23;
47741;PMS5003;33504;52.066;6.096;2023-07-28T04:29:55;22;21;
47741;PMS5003;33504;52.066;6.096;2023-07-28T04:32:21;28;22;
47741;PMS5003;33504;52.066;6.096;2023-07-28T04:34:48;28;23;
47741;PMS5003;33504;52.066;6.096;2023-07-28T04:37:15;30;28;
47741;PMS5003;33504;52.066;6.096;2023-07-28T04:39:42;29;26;
47741;PMS5003;33504;52.066;6.096;2023-07-28T04:42:09;26;23;
47741;PMS5003;33504;52.066;6.096;2023-07-28T04:44:37;28;26;
47741;PMS5003;33504;52.066;6.096;2023-07-28T04:47:05;25;25;
47741;PMS5003;33504;52.066;6.096;2023-07-28T04:49:32;25;21;
47741;PMS5003;33504;52.066;6.096;2023-07-28T04:51:59;27;24;
47741;PMS5003;33504;52.066;6.096;2023-07-28T04:54:26;27;26;
47741;PMS5003;33504;52.066;6.096;2023-07-28T04:56:53;27;26;
47741;PMS5003;33504;52.066;6.096;2023-07-28T04:59:20;28;27;
47741;PMS5003;33504;52.066;6.096;2023-07-28T05:01:48;22;21;
47741;PMS5003;33504;52.066;6.096;2023-07-28T05:04:14;21;20;
47741;PMS5003;33504;52.066;6.096;2023-07-28T05:06:41;25;24;
47741;PMS5003;33504;52.066;6.096;2023-07-28T05:09:09;22;20;
47741;PMS5003;33504;52.066;6.096;2023-07-28T05:11:35;25;24;
47741;PMS5003;33504;52.066;6.096;2023-07-28T05:14:02;22;20;
47741;PMS5003;33504;52.066;6.096;2023-07-28T05:16:30;29;26;
47741;PMS5003;33504;52.066;6.096;2023-07-28T05:18:57;25;25;
47741;PMS5003;33504;52.066;6.096;2023-07-28T05:21:24;22;21;
47741;PMS5003;33504;52.066;6.096;2023-07-28T05:23:51;22;19;
47741;PMS5003;33504;52.066;6.096;2023-07-28T05:26:18;27;25;
47741;PMS5003;33504;52.066;6.096;2023-07-28T05:28:45;24;23;
47741;PMS5003;33504;52.066;6.096;2023-07-28T05:31:12;27;25;
47741;PMS5003;33504;52.066;6.096;2023-07-28T05:33:40;24;22;
47741;PMS5003;33504;52.066;6.096;2023-07-28T05:36:06;24;22;
47741;PMS5003;33504;52.066;6.096;2023-07-28T05:38:33;23;22;
47741;PMS5003;33504;52.066;6.096;2023-07-28T05:41:01;19;18;
47741;PMS5003;33504;52.066;6.096;2023-07-28T05:43:29;27;21;
47741;PMS5003;33504;52.066;6.096;2023-07-28T05:45:57;26;24;
47741;PMS5003;33504;52.066;6.096;2023-07-28T05:48:24;20;18;
47741;PMS5003;33504;52.066;6.096;2023-07-28T05:50:51;28;26;
47741;PMS5003;33504;52.066;6.096;2023-07-28T05:53:18;21;18;
47741;PMS5003;33504;52.066;6.096;2023-07-28T05:55:45;25;24;
47741;PMS5003;33504;52.066;6.096;2023-07-28T05:58:11;20;18;
47741;PMS5003;33504;52.066;6.096;2023-07-28T06:00:38;19;18;
47741;PMS5003;33504;52.066;6.096;2023-07-28T06:03:05;23;20;
47741;PMS5003;33504;52.066;6.096;2023-07-28T06:05:32;22;22;
47741;PMS5003;33504;52.066;6.096;2023-07-28T06:07:59;22;21;
47741;PMS5003;33504;52.066;6.096;2023-07-28T06:10:26;29;26;
47741;PMS5003;33504;52.066;6.096;2023-07-28T06:12:54;29;26;
47741;PMS5003;33504;52.066;6.096;2023-07-28T06:15:21;21;19;
47741;PMS5003;33504;52.066;6.096;2023-07-28T06:17:47;23;21;
47741;PMS5003;33504;52.066;6.096;2023-07-28T06:20:14;26;22;
47741;PMS5003;33504;52.066;6.096;2023-07-28T06:22:41;22;20;
47741;PMS5003;33504;52.066;6.096;2023-07-28T06:25:09;27;25;
47741;PMS5003;33504;52.066;6.096;2023-07-28T06:27:35;21;20;
47741;PMS5003;33504;52.066;6.096;2023-07-28T06:30:02;28;24;
47741;PMS5003;33504;52.066;6.096;2023-07-28T06:32:30;22;20;
47741;PMS5003;33504;52.066;6.096;2023-07-28T06:34:57;24;24;
47741;PMS5003;33504;52.066;6.096;2023-07-28T06:37:24;24;23;
47741;PMS5003;33504;52.066;6.096;2023-07-28T06:39:51;24;23;
47741;PMS5003;33504;52.066;6.096;2023-07-28T06:42:18;23;21;
47741;PMS5003;33504;52.066;6.096;2023-07-28T06:44:45;20;18;
47741;PMS5003;33504;52.066;6.096;2023-07-28T06:47:12;21;21;
47741;PMS5003;33504;52.066;6.096;2023-07-28T06:49:39;24;23;
47741;PMS5003;33504;52.066;6.096;2023-07-28T06:52:07;18;17;
47741;PMS5003;33504;52.066;6.096;2023-07-28T06:54:33;21;19;
47741;PMS5003;33504;52.066;6.096;2023-07-28T06:57:01;20;20;
47741;PMS5003;33504;52.066;6.096;2023-07-28T06:59:29;18;15;
47741;PMS5003;33504;52.066;6.096;2023-07-28T07:01:57;20;19;
47741;PMS5003;33504;52.066;6.096;2023-07-28T07:04:24;19;18;
47741;PMS5003;33504;52.066;6.096;2023-07-28T07:06:51;20;20;
47741;PMS5003;33504;52.066;6.096;2023-07-28T07:09:18;16;16;
47741;PMS5003;33504;52.066;6.096;2023-07-28T07:11:45;15;14;
47741;PMS5003;33504;52.066;6.096;2023-07-28T07:14:13;18;16;
47741;PMS5003;33504;52.066;6.096;2023-07-28T07:16:40;15;14;
47741;PMS5003;33504;52.066;6.096;2023-07-28T07:19:08;16;16;
47741;PMS5003;33504;52.066;6.096;2023-07-28T07:21:36;17;17;
47741;PMS5003;33504;52.066;6.096;2023-07-28T07:24:03;17;15;
47741;PMS5003;33504;52.066;6.096;2023-07-28T07:26:31;16;16;
47741;PMS5003;33504;52.066;6.096;2023-07-28T07:28:58;15;14;
47741;PMS5003;33504;52.066;6.096;2023-07-28T07:31:27;16;14;
47741;PMS5003;33504;52.066;6.096;2023-07-28T07:33:55;15;14;
47741;PMS5003;33504;52.066;6.096;2023-07-28T07:36:21;14;13;
47741;PMS5003;33504;52.066;6.096;2023-07-28T07:38:49;25;24;
47741;PMS5003;33504;52.066;6.096;2023-07-28T07:41:16;17;16;
47741;PMS5003;33504;52.066;6.096;2023-07-28T07:43:44;22;20;
47741;PMS5003;33504;52.066;6.096;2023-07-28T07:46:11;21;19;
47741;PMS5003;33504;52.066;6.096;2023-07-28T07:48:37;19;16;
47741;PMS5003;33504;52.066;6.096;2023-07-28T07:51:05;27;22;
47741;PMS5003;33504;52.066;6.096;2023-07-28T07:53:32;24;22;
47741;PMS5003;33504;52.066;6.096;2023-07-28T07:55:59;20;19;
47741;PMS5003;33504;52.066;6.096;2023-07-28T07:58:26;19;19;
47741;PMS5003;33504;52.066;6.096;2023-07-28T08:00:54;22;21;
47741;PMS5003;33504;52.066;6.096;2023-07-28T08:03:21;13;12;
47741;PMS5003;33504;52.066;6.096;2023-07-28T08:05:48;23;21;
47741;PMS5003;33504;52.066;6.096;2023-07-28T08:08:15;27;25;
47741;PMS5003;33504;52.066;6.096;2023-07-28T08:10:42;22;22;
47741;PMS5003;33504;52.066;6.096;2023-07-28T08:13:09;23;20;
47741;PMS5003;33504;52.066;6.096;2023-07-28T08:15:36;18;17;
47741;PMS5003;33504;52.066;6.096;2023-07-28T08:18:03;17;17;
47741;PMS5003;33504;52.066;6.096;2023-07-28T08:20:30;19;18;
47741;PMS5003;33504;52.066;6.096;2023-07-28T08:22:57;26;21;
47741;PMS5003;33504;52.066;6.096;2023-07-28T08:25:24;18;18;
47741;PMS5003;33504;52.066;6.096;2023-07-28T08:27:50;18;16;
47741;PMS5003;33504;52.066;6.096;2023-07-28T08:30:18;19;18;
47741;PMS5003;33504;52.066;6.096;2023-07-28T08:32:45;14;14;
47741;PMS5003;33504;52.066;6.096;2023-07-28T08:35:14;19;18;
47741;PMS5003;33504;52.066;6.096;2023-07-28T08:37:41;15;13;
47741;PMS5003;33504;52.066;6.096;2023-07-28T08:40:09;14;13;
47741;PMS5003;33504;52.066;6.096;2023-07-28T08:42:37;18;17;
47741;PMS5003;33504;52.066;6.096;2023-07-28T08:45:06;15;13;
47741;PMS5003;33504;52.066;6.096;2023-07-28T08:47:34;17;17;
47741;PMS5003;33504;52.066;6.096;2023-07-28T08:50:01;17;16;
47741;PMS5003;33504;52.066;6.096;2023-07-28T08:52:28;19;18;
47741;PMS5003;33504;52.066;6.096;2023-07-28T08:54:55;16;15;
47741;PMS5003;33504;52.066;6.096;2023-07-28T08:57:22;18;17;
47741;PMS5003;33504;52.066;6.096;2023-07-28T08:59:50;21;20;
47741;PMS5003;33504;52.066;6.096;2023-07-28T09:02:18;16;15;
47741;PMS5003;33504;52.066;6.096;2023-07-28T09:04:46;14;14;
47741;PMS5003;33504;52.066;6.096;2023-07-28T09:07:14;17;17;
47741;PMS5003;33504;52.066;6.096;2023-07-28T09:09:41;17;17;
47741;PMS5003;33504;52.066;6.096;2023-07-28T09:12:09;57;56;
47741;PMS5003;33504;52.066;6.096;2023-07-28T09:14:36;32;31;
47741;PMS5003;33504;52.066;6.096;2023-07-28T09:17:07;35;32;
47741;PMS5003;33504;52.066;6.096;2023-07-28T09:19:35;17;17;
47741;PMS5003;33504;52.066;6.096;2023-07-28T09:22:15;30;29;
47741;PMS5003;33504;52.066;6.096;2023-07-28T09:24:43;50;49;
47741;PMS5003;33504;52.066;6.096;2023-07-28T09:27:18;28;26;
47741;PMS5003;33504;52.066;6.096;2023-07-28T09:29:48;34;34;
47741;PMS5003;33504;52.066;6.096;2023-07-28T09:32:15;54;51;
47741;PMS5003;33504;52.066;6.096;2023-07-28T09:34:43;18;17;
47741;PMS5003;33504;52.066;6.096;2023-07-28T09:37:09;41;41;
47741;PMS5003;33504;52.066;6.096;2023-07-28T09:39:38;54;53;
47741;PMS5003;33504;52.066;6.096;2023-07-28T09:42:07;23;23;
47741;PMS5003;33504;52.066;6.096;2023-07-28T09:44:35;19;18;
47741;PMS5003;33504;52.066;6.096;2023-07-28T09:47:02;17;16;
47741;PMS5003;33504;52.066;6.096;2023-07-28T09:49:33;15;14;
47741;PMS5003;33504;52.066;6.096;2023-07-28T09:52:03;15;14;
47741;PMS5003;33504;52.066;6.096;2023-07-28T09:54:33;14;13;
47741;PMS5003;33504;52.066;6.096;2023-07-28T09:57:05;17;17;
47741;PMS5003;33504;52.066;6.096;2023-07-28T09:59:38;16;15;
47741;PMS5003;33504;52.066;6.096;2023-07-28T10:02:06;14;14;
47741;PMS5003;33504;52.066;6.096;2023-07-28T10:04:34;16;15;
47741;PMS5003;33504;52.066;6.096;2023-07-28T10:07:02;11;11;
47741;PMS5003;33504;52.066;6.096;2023-07-28T10:09:31;15;13;
47741;PMS5003;33504;52.066;6.096;2023-07-28T10:11:59;12;11;
47741;PMS5003;33504;52.066;6.096;2023-07-28T10:14:28;16;15;
47741;PMS5003;33504;52.066;6.096;2023-07-28T10:16:56;14;14;
47741;PMS5003;33504;52.066;6.096;2023-07-28T10:19:24;11;11;
47741;PMS5003;33504;52.066;6.096;2023-07-28T10:21:58;12;12;
47741;PMS5003;33504;52.066;6.096;2023-07-28T10:24:49;10;10;
47741;PMS5003;33504;52.066;6.096;2023-07-28T10:27:28;13;12;
47741;PMS5003;33504;52.066;6.096;2023-07-28T10:29:56;14;14;
47741;PMS5003;33504;52.066;6.096;2023-07-28T10:32:25;10;10;
47741;PMS5003;33504;52.066;6.096;2023-07-28T10:35:01;15;13;
47741;PMS5003;33504;52.066;6.096;2023-07-28T10:37:32;15;13;
47741;PMS5003;33504;52.066;6.096;2023-07-28T10:40:32;13;12;
47741;PMS5003;33504;52.066;6.096;2023-07-28T10:43:01;10;10;
47741;PMS5003;33504;52.066;6.096;2023-07-28T10:45:29;12;12;
47741;PMS5003;33504;52.066;6.096;2023-07-28T10:47:58;11;11;
47741;PMS5003;33504;52.066;6.096;2023-07-28T10:50:26;11;10;
47741;PMS5003;33504;52.066;6.096;2023-07-28T10:52:54;7;7;
47741;PMS5003;33504;52.066;6.096;2023-07-28T10:55:22;8;8;
47741;PMS5003;33504;52.066;6.096;2023-07-28T10:57:51;10;10;
47741;PMS5003;33504;52.066;6.096;2023-07-28T11:00:21;15;15;
47741;PMS5003;33504;52.066;6.096;2023-07-28T11:02:49;23;21;
47741;PMS5003;33504;52.066;6.096;2023-07-28T11:05:19;18;18;
47741;PMS5003;33504;52.066;6.096;2023-07-28T11:07:48;10;9;
47741;PMS5003;33504;52.066;6.096;2023-07-28T11:10:15;11;10;
47741;PMS5003;33504;52.066;6.096;2023-07-28T11:12:43;10;10;
47741;PMS5003;33504;52.066;6.096;2023-07-28T11:15:12;11;9;
47741;PMS5003;33504;52.066;6.096;2023-07-28T11:17:41;12;12;
47741;PMS5003;33504;52.066;6.096;2023-07-28T11:20:14;10;10;
47741;PMS5003;33504;52.066;6.096;2023-07-28T11:22:41;13;12;
47741;PMS5003;33504;52.066;6.096;2023-07-28T11:25:09;10;8;
47741;PMS5003;33504;52.066;6.096;2023-07-28T11:27:36;8;7;
47741;PMS5003;33504;52.066;6.096;2023-07-28T11:30:04;10;10;
47741;PMS5003;33504;52.066;6.096;2023-07-28T11:32:34;11;10;
47741;PMS5003;33504;52.066;6.096;2023-07-28T11:35:03;10;9;
47741;PMS5003;33504;52.066;6.096;2023-07-28T11:37:31;9;9;
47741;PMS5003;33504;52.066;6.096;2023-07-28T11:39:59;11;10;
47741;PMS5003;33504;52.066;6.096;2023-07-28T11:42:27;10;10;
47741;PMS5003;33504;52.066;6.096;2023-07-28T11:44:55;11;11;
47741;PMS5003;33504;52.066;6.096;2023-07-28T11:47:22;9;9;
47741;PMS5003;33504;52.066;6.096;2023-07-28T11:49:50;11;10;
47741;PMS5003;33504;52.066;6.096;2023-07-28T11:52:17;11;11;
47741;PMS5003;33504;52.066;6.096;2023-07-28T11:54:44;14;12;
47741;PMS5003;33504;52.066;6.096;2023-07-28T11:57:11;16;14;
47741;PMS5003;33504;52.066;6.096;2023-07-28T11:59:39;13;12;
47741;PMS5003;33504;52.066;6.096;2023-07-28T12:02:07;13;13;
47741;PMS5003;33504;52.066;6.096;2023-07-28T12:04:35;13;12;
47741;PMS5003;33504;52.066;6.096;2023-07-28T12:07:06;12;12;
47741;PMS5003;33504;52.066;6.096;2023-07-28T12:09:51;11;11;
47741;PMS5003;33504;52.066;6.096;2023-07-28T12:12:18;14;14;
47741;PMS5003;33504;52.066;6.096;2023-07-28T12:14:48;15;14;
47741;PMS5003;33504;52.066;6.096;2023-07-28T12:17:17;16;16;
47741;PMS5003;33504;52.066;6.096;2023-07-28T12:19:59;10;10;
47741;PMS5003;33504;52.066;6.096;2023-07-28T12:22:29;11;10;
47741;PMS5003;33504;52.066;6.096;2023-07-28T12:24:57;70;68;
47741;PMS5003;33504;52.066;6.096;2023-07-28T12:27:24;12;12;
47741;PMS5003;33504;52.066;6.096;2023-07-28T12:29:51;19;18;
47741;PMS5003;33504;52.066;6.096;2023-07-28T12:32:19;19;18;
47741;PMS5003;33504;52.066;6.096;2023-07-28T12:34:48;19;18;
47741;PMS5003;33504;52.066;6.096;2023-07-28T12:37:15;14;14;
47741;PMS5003;33504;52.066;6.096;2023-07-28T12:39:43;15;14;
47741;PMS5003;33504;52.066;6.096;2023-07-28T12:42:11;16;14;
47741;PMS5003;33504;52.066;6.096;2023-07-28T12:44:38;13;12;
47741;PMS5003;33504;52.066;6.096;2023-07-28T12:47:06;18;18;
47741;PMS5003;33504;52.066;6.096;2023-07-28T12:49:34;13;11;
47741;PMS5003;33504;52.066;6.096;2023-07-28T12:52:04;21;20;
47741;PMS5003;33504;52.066;6.096;2023-07-28T12:54:32;11;11;
47741;PMS5003;33504;52.066;6.096;2023-07-28T12:56:59;13;11;
47741;PMS5003;33504;52.066;6.096;2023-07-28T12:59:26;17;17;
47741;PMS5003;33504;52.066;6.096;2023-07-28T13:01:54;15;14;
47741;PMS5003;33504;52.066;6.096;2023-07-28T13:04:21;13;12;
47741;PMS5003;33504;52.066;6.096;2023-07-28T13:06:49;11;10;
47741;PMS5003;33504;52.066;6.096;2023-07-28T13:09:16;12;12;
47741;PMS5003;33504;52.066;6.096;2023-07-28T13:11:43;13;13;
47741;PMS5003;33504;52.066;6.096;2023-07-28T13:14:10;12;12;
47741;PMS5003;33504;52.066;6.096;2023-07-28T13:16:37;11;11;
47741;PMS5003;33504;52.066;6.096;2023-07-28T13:19:05;10;10;
47741;PMS5003;33504;52.066;6.096;2023-07-28T13:21:32;12;12;
47741;PMS5003;33504;52.066;6.096;2023-07-28T13:23:59;10;10;
47741;PMS5003;33504;52.066;6.096;2023-07-28T13:26:26;10;10;
47741;PMS5003;33504;52.066;6.096;2023-07-28T13:28:54;9;9;
47741;PMS5003;33504;52.066;6.096;2023-07-28T13:31:20;10;10;
47741;PMS5003;33504;52.066;6.096;2023-07-28T13:33:48;7;7;
47741;PMS5003;33504;52.066;6.096;2023-07-28T13:36:15;10;10;
47741;PMS5003;33504;52.066;6.096;2023-07-28T13:38:43;9;9;
47741;PMS5003;33504;52.066;6.096;2023-07-28T13:41:10;7;7;
47741;PMS5003;33504;52.066;6.096;2023-07-28T13:43:37;8;8;
47741;PMS5003;33504;52.066;6.096;2023-07-28T13:46:04;8;7;
47741;PMS5003;33504;52.066;6.096;2023-07-28T13:48:32;10;9;
47741;PMS5003;33504;52.066;6.096;2023-07-28T13:50:59;7;7;
47741;PMS5003;33504;52.066;6.096;2023-07-28T13:53:26;8;8;
47741;PMS5003;33504;52.066;6.096;2023-07-28T13:55:54;9;7;
47741;PMS5003;33504;52.066;6.096;2023-07-28T13:58:21;8;8;
47741;PMS5003;33504;52.066;6.096;2023-07-28T14:00:48;7;6;
47741;PMS5003;33504;52.066;6.096;2023-07-28T14:03:16;10;8;
47741;PMS5003;33504;52.066;6.096;2023-07-28T14:05:43;6;6;
47741;PMS5003;33504;52.066;6.096;2023-07-28T14:08:10;8;8;
47741;PMS5003;33504;52.066;6.096;2023-07-28T14:10:37;6;6;
47741;PMS5003;33504;52.066;6.096;2023-07-28T14:13:05;8;7;
47741;PMS5003;33504;52.066;6.096;2023-07-28T14:15:32;9;9;
47741;PMS5003;33504;52.066;6.096;2023-07-28T14:17:59;8;8;
47741;PMS5003;33504;52.066;6.096;2023-07-28T14:20:26;10;10;
47741;PMS5003;33504;52.066;6.096;2023-07-28T14:22:54;8;8;
47741;PMS5003;33504;52.066;6.096;2023-07-28T14:25:21;10;9;
47741;PMS5003;33504;52.066;6.096;2023-07-28T14:27:48;10;9;
47741;PMS5003;33504;52.066;6.096;2023-07-28T14:30:15;12;10;
47741;PMS5003;33504;52.066;6.096;2023-07-28T14:32:43;7;7;
47741;PMS5003;33504;52.066;6.096;2023-07-28T14:35:10;10;9;
47741;PMS5003;33504;52.066;6.096;2023-07-28T14:37:37;6;6;
47741;PMS5003;33504;52.066;6.096;2023-07-28T14:40:05;9;9;
47741;PMS5003;33504;52.066;6.096;2023-07-28T14:42:33;9;8;
47741;PMS5003;33504;52.066;6.096;2023-07-28T14:45:00;8;8;
47741;PMS5003;33504;52.066;6.096;2023-07-28T14:47:28;7;6;
47741;PMS5003;33504;52.066;6.096;2023-07-28T14:49:55;9;8;
47741;PMS5003;33504;52.066;6.096;2023-07-28T14:52:22;9;9;
47741;PMS5003;33504;52.066;6.096;2023-07-28T14:54:49;7;7;
47741;PMS5003;33504;52.066;6.096;2023-07-28T14:57:17;8;8;
47741;PMS5003;33504;52.066;6.096;2023-07-28T14:59:44;7;7;
47741;PMS5003;33504;52.066;6.096;2023-07-28T15:02:11;8;7;
47741;PMS5003;33504;52.066;6.096;2023-07-28T15:04:39;9;9;
47741;PMS5003;33504;52.066;6.096;2023-07-28T15:07:06;8;8;
47741;PMS5003;33504;52.066;6.096;2023-07-28T15:09:33;10;10;
47741;PMS5003;33504;52.066;6.096;2023-07-28T15:12:00;10;9;
47741;PMS5003;33504;52.066;6.096;2023-07-28T15:14:28;10;10;
47741;PMS5003;33504;52.066;6.096;2023-07-28T15:16:55;9;9;
47741;PMS5003;33504;52.066;6.096;2023-07-28T15:19:21;8;8;
47741;PMS5003;33504;52.066;6.096;2023-07-28T15:21:49;8;8;
47741;PMS5003;33504;52.066;6.096;2023-07-28T15:24:16;11;10;
47741;PMS5003;33504;52.066;6.096;2023-07-28T15:26:43;9;8;
47741;PMS5003;33504;52.066;6.096;2023-07-28T15:29:10;7;7;
47741;PMS5003;33504;52.066;6.096;2023-07-28T15:31:38;9;8;
47741;PMS5003;33504;52.066;6.096;2023-07-28T15:34:05;11;11;
47741;PMS5003;33504;52.066;6.096;2023-07-28T15:36:32;9;9;
47741;PMS5003;33504;52.066;6.096;2023-07-28T15:39:00;7;7;
47741;PMS5003;33504;52.066;6.096;2023-07-28T15:41:27;12;11;
47741;PMS5003;33504;52.066;6.096;2023-07-28T15:43:54;12;12;
47741;PMS5003;33504;52.066;6.096;2023-07-28T15:46:21;12;12;
47741;PMS5003;33504;52.066;6.096;2023-07-28T15:48:48;10;10;
47741;PMS5003;33504;52.066;6.096;2023-07-28T15:51:16;11;10;
47741;PMS5003;33504;52.066;6.096;2023-07-28T15:53:43;10;8;
47741;PMS5003;33504;52.066;6.096;2023-07-28T15:56:10;12;11;
47741;PMS5003;33504;52.066;6.096;2023-07-28T15:58:37;13;11;
47741;PMS5003;33504;52.066;6.096;2023-07-28T16:01:04;11;11;
47741;PMS5003;33504;52.066;6.096;2023-07-28T16:03:32;11;11;
47741;PMS5003;33504;52.066;6.096;2023-07-28T16:05:59;13;12;
47741;PMS5003;33504;52.066;6.096;2023-07-28T16:08:26;10;10;
47741;PMS5003;33504;52.066;6.096;2023-07-28T16:10:53;12;11;
47741;PMS5003;33504;52.066;6.096;2023-07-28T16:13:20;9;9;
47741;PMS5003;33504;52.066;6.096;2023-07-28T16:15:47;13;12;
47741;PMS5003;33504;52.066;6.096;2023-07-28T16:18:14;9;8;
47741;PMS5003;33504;52.066;6.096;2023-07-28T16:20:42;11;11;
47741;PMS5003;33504;52.066;6.096;2023-07-28T16:23:09;13;12;
47741;PMS5003;33504;52.066;6.096;2023-07-28T16:25:36;11;10;
47741;PMS5003;33504;52.066;6.096;2023-07-28T16:28:03;7;7;